Flight Track Log - Related Links

Times and Time Zones

All times are in EDT time to prevent confusion due to time zone crossing. See the UAL1036 flight status page for this flight to view local times or setup timezone preferences in your user account.

Time Position Orientation Groundspeed Altitude Reporting Facility
EDT Latitude Longitude Course Direction KTS MPH feet Rate Location/Type
Thu 02:03:00 AM 7.0046 -82.4109 330° Northwest  Level FlightAware Approximate
Thu 02:04:00 AM 7.1060 -82.4694 330° Northwest  Level FlightAware Approximate
Thu 02:05:00 AM 7.2074 -82.5280 330° Northwest  Level FlightAware Approximate
Thu 02:06:00 AM 7.3087 -82.5866 330° Northwest  Level FlightAware Approximate
Thu 02:07:00 AM 7.4100 -82.6452 330° Northwest  Level FlightAware Approximate
Thu 02:08:00 AM 7.5114 -82.7038 330° Northwest  Level FlightAware Approximate
Thu 02:09:00 AM 7.6127 -82.7625 330° Northwest  Level FlightAware Approximate
Thu 02:10:00 AM 7.7137 -82.8210 330° Northwest  Level FlightAware Approximate
Thu 02:11:00 AM 7.8147 -82.8795 330° Northwest  Level FlightAware Approximate
Thu 02:12:00 AM 7.9157 -82.9380 330° Northwest  Level FlightAware Approximate
Thu 02:13:00 AM 8.0168 -82.9964 330° Northwest  Level FlightAware Approximate
Thu 02:14:00 AM 8.1178 -83.0548 330° Northwest  Level FlightAware Approximate
Thu 02:15:00 AM 8.2188 -83.1133 330° Northwest  Level FlightAware Approximate
Thu 02:16:00 AM 8.3198 -83.1718 330° Northwest  Level FlightAware Approximate
Thu 02:17:00 AM 8.4208 -83.2304 330° Northwest  Level FlightAware Approximate
Thu 02:18:00 AM 8.5218 -83.2889 330° Northwest  Level FlightAware Approximate
Thu 02:19:00 AM 8.6229 -83.3475 330° Northwest  Level FlightAware Approximate
Thu 02:20:00 AM 8.7238 -83.4062 330° Northwest  Level FlightAware Approximate
Thu 02:21:00 AM 8.8248 -83.4649 330° Northwest  Level FlightAware Approximate
Thu 02:22:00 AM 8.9258 -83.5236 330° Northwest  Level FlightAware Approximate
Thu 02:23:00 AM 9.0267 -83.5823 330° Northwest  Level FlightAware Approximate
Thu 02:24:00 AM 9.1277 -83.6411 330° Northwest  Level FlightAware Approximate
Thu 02:25:00 AM 9.2286 -83.6999 330° Northwest  Level FlightAware Approximate
Thu 02:26:00 AM 9.3296 -83.7587 330° Northwest  Level FlightAware Approximate
Thu 02:27:00 AM 9.4305 -83.8176 330° Northwest  Level FlightAware Approximate
Thu 02:28:00 AM 9.5314 -83.8764 330° Northwest  Level FlightAware Approximate
Thu 02:29:00 AM 9.6323 -83.9354 330° Northwest  Level FlightAware Approximate
Thu 02:30:00 AM 9.7332 -83.9944 330° Northwest  Level FlightAware Approximate
Thu 02:31:00 AM 9.8341 -84.0534 330° Northwest  Level FlightAware Approximate
Thu 02:32:00 AM 9.9349 -84.1124 330° Northwest  Level FlightAware Approximate
Thu 02:33:00 AM 10.0358 -84.1715 330° Northwest  Level FlightAware Approximate
Thu 02:34:00 AM 10.1367 -84.2306 330° Northwest  Level FlightAware Approximate
Thu 02:35:00 AM 10.2375 -84.2898 330° Northwest  Level FlightAware Approximate
Thu 02:36:00 AM 10.3383 -84.3490 330° Northwest  Level FlightAware Approximate
Thu 02:37:00 AM 10.4391 -84.4082 330° Northwest  Level FlightAware Approximate
Thu 02:38:00 AM 10.5400 -84.4675 330° Northwest  Level FlightAware Approximate
Thu 02:39:00 AM 10.6407 -84.5268 330° Northwest  Level FlightAware Approximate
Thu 02:40:00 AM 10.7415 -84.5861 330° Northwest  Level FlightAware Approximate
Thu 02:41:00 AM 10.8423 -84.6455 330° Northwest  Level FlightAware Approximate
Thu 02:42:00 AM 10.9431 -84.7049 330° Northwest  Level FlightAware Approximate
Thu 02:43:00 AM 11.0438 -84.7644 330° Northwest  Level FlightAware Approximate
Thu 02:44:00 AM 11.1446 -84.8239 330° Northwest  Level FlightAware Approximate
Thu 02:45:00 AM 11.2453 -84.8834 330° Northwest  Level FlightAware Approximate
Thu 02:46:00 AM 11.3460 -84.9430 330° Northwest  Level FlightAware Approximate
Thu 02:47:00 AM 11.4467 -85.0026 330° Northwest  Level FlightAware Approximate
Thu 02:48:00 AM 11.5474 -85.0623 330° Northwest  Level FlightAware Approximate
Thu 02:49:00 AM 11.6481 -85.1220 330° Northwest  Level FlightAware Approximate
Thu 02:50:00 AM 11.7487 -85.1818 330° Northwest  Level FlightAware Approximate
Thu 02:51:00 AM 11.8494 -85.2416 330° Northwest  Level FlightAware Approximate
Thu 02:52:00 AM 11.9501 -85.3015 330° Northwest  Level FlightAware Approximate
Thu 02:53:00 AM 12.0507 -85.3613 330° Northwest  Level FlightAware Approximate
Thu 02:54:00 AM 12.1513 -85.4213 330° Northwest  Level FlightAware Approximate
Thu 02:55:00 AM 12.2519 -85.4812 330° Northwest  Level FlightAware Approximate
Thu 02:56:00 AM 12.3526 -85.5411 330° Northwest  Level FlightAware Approximate
Thu 02:57:00 AM 12.4539 -85.6014 330° Northwest  Level FlightAware Approximate
Thu 02:58:00 AM 12.5553 -85.6618 330° Northwest  Level FlightAware Approximate
Thu 02:59:00 AM 12.6566 -85.7221 330° Northwest  Level FlightAware Approximate
Thu 03:00:00 AM 12.7580 -85.7825 330° Northwest  Level FlightAware Approximate
Thu 03:01:00 AM 12.8593 -85.8430 330° Northwest  Level FlightAware Approximate
Thu 03:02:00 AM 12.9606 -85.9035 330° Northwest  Level FlightAware Approximate
Thu 03:03:00 AM 13.0619 -85.9641 330° Northwest  Level FlightAware Approximate
Thu 03:04:00 AM 13.1632 -86.0247 330° Northwest  Level FlightAware Approximate
Thu 03:05:00 AM 13.2644 -86.0854 330° Northwest  Level FlightAware Approximate
Thu 03:06:00 AM 13.3657 -86.1461 330° Northwest  Level FlightAware Approximate
Thu 03:07:00 AM 13.4669 -86.2069 330° Northwest  Level FlightAware Approximate
Thu 03:08:00 AM 13.5681 -86.2677 330° Northwest  Level FlightAware Approximate
Thu 03:09:00 AM 13.6693 -86.3286 330° Northwest  Level FlightAware Approximate
Thu 03:10:00 AM 13.7705 -86.3895 330° Northwest  Level FlightAware Approximate
Thu 03:11:00 AM 13.8717 -86.4505 330° Northwest  Level FlightAware Approximate
Thu 03:12:00 AM 13.9729 -86.5115 330° Northwest  Level FlightAware Approximate
Thu 03:13:00 AM 14.0740 -86.5726 330° Northwest  Level FlightAware Approximate
Thu 03:14:00 AM 14.1751 -86.6338 330° Northwest  Level FlightAware Approximate
Thu 03:15:00 AM 14.2762 -86.6950 330° Northwest  Level FlightAware Approximate
Thu 03:16:00 AM 14.3773 -86.7562 330° Northwest  Level FlightAware Approximate
Thu 03:17:00 AM 14.4784 -86.8175 330° Northwest  Level FlightAware Approximate
Thu 03:18:00 AM 14.5795 -86.8789 330° Northwest  Level FlightAware Approximate
Thu 03:19:00 AM 14.6805 -86.9403 330° Northwest  Level FlightAware Approximate
Thu 03:20:00 AM 14.7816 -87.0018 330° Northwest  Level FlightAware Approximate
Thu 03:21:00 AM 14.8826 -87.0633 330° Northwest  Level FlightAware Approximate
Thu 03:22:00 AM 14.9836 -87.1249 330° Northwest  Level FlightAware Approximate
Thu 03:23:00 AM 15.0846 -87.1865 329° Northwest  Level FlightAware Approximate
Thu 03:24:00 AM 15.1855 -87.2483 329° Northwest  Level FlightAware Approximate
Thu 03:25:00 AM 15.2865 -87.3100 329° Northwest  Level FlightAware Approximate
Thu 03:26:00 AM 15.3874 -87.3719 329° Northwest  Level FlightAware Approximate
Thu 03:27:00 AM 15.4882 -87.4340 329° Northwest  Level FlightAware Approximate
Thu 03:28:00 AM 15.5888 -87.4965 329° Northwest  Level FlightAware Approximate
Thu 03:29:00 AM 15.6894 -87.5589 329° Northwest  Level FlightAware Approximate
Thu 03:30:00 AM 15.7900 -87.6215 329° Northwest  Level FlightAware Approximate
Thu 03:31:00 AM 15.8906 -87.6841 329° Northwest  Level FlightAware Approximate
Thu 03:32:00 AM 15.9911 -87.7468 329° Northwest  Level FlightAware Approximate
Thu 03:33:00 AM 16.0917 -87.8095 329° Northwest  Level FlightAware Approximate
Thu 03:34:00 AM 16.1922 -87.8723 329° Northwest  Level FlightAware Approximate
Thu 03:35:00 AM 16.2927 -87.9352 329° Northwest  Level FlightAware Approximate
Thu 03:36:00 AM 16.3932 -87.9981 329° Northwest  Level FlightAware Approximate
Thu 03:37:00 AM 16.4937 -88.0611 329° Northwest  Level FlightAware Approximate
Thu 03:38:00 AM 16.5941 -88.1242 329° Northwest  Level FlightAware Approximate
Thu 03:39:00 AM 16.6945 -88.1873 329° Northwest  Level FlightAware Approximate
Thu 03:40:00 AM 16.7949 -88.2505 329° Northwest  Level FlightAware Approximate
Thu 03:41:00 AM 16.8953 -88.3138 329° Northwest  Level FlightAware Approximate
Thu 03:42:00 AM 16.9957 -88.3771 329° Northwest  Level FlightAware Approximate
Thu 03:43:00 AM 17.0960 -88.4405 329° Northwest  Level FlightAware Approximate
Thu 03:44:00 AM 17.1963 -88.5039 329° Northwest  Level FlightAware Approximate
Thu 03:45:00 AM 17.2966 -88.5675 329° Northwest  Level FlightAware Approximate
Thu 03:46:00 AM 17.3969 -88.6311 329° Northwest  Level FlightAware Approximate
Thu 03:47:00 AM 17.4972 -88.6947 329° Northwest  Level FlightAware Approximate
Thu 03:48:00 AM 17.5974 -88.7585 329° Northwest  Level FlightAware Approximate
Thu 03:49:00 AM 17.6977 -88.8223 329° Northwest  Level FlightAware Approximate
Thu 03:50:00 AM 17.7979 -88.8862 329° Northwest  Level FlightAware Approximate
Thu 03:51:00 AM 17.8980 -88.9501 329° Northwest  Level FlightAware Approximate
Thu 03:52:00 AM 18.0000 -89.0106 329° Northwest  Level FlightAware Approximate
Thu 03:53:00 AM 18.1002 -89.0746 329° Northwest  Level FlightAware Approximate
Thu 03:54:00 AM 18.2004 -89.1387 329° Northwest  Level FlightAware Approximate
Thu 03:55:00 AM 18.3006 -89.2028 329° Northwest  Level FlightAware Approximate
Thu 03:56:00 AM 18.4007 -89.2670 329° Northwest  Level FlightAware Approximate
Thu 03:57:00 AM 18.5009 -89.3312 329° Northwest  Level FlightAware Approximate
Thu 03:58:00 AM 18.6010 -89.3956 329° Northwest  Level FlightAware Approximate
Thu 03:59:00 AM 18.7011 -89.4600 329° Northwest  Level FlightAware Approximate
Thu 04:00:00 AM 18.8011 -89.5245 329° Northwest  Level FlightAware Approximate
Thu 04:01:00 AM 18.9012 -89.5891 329° Northwest  Level FlightAware Approximate
Thu 04:02:00 AM 19.0012 -89.6537 329° Northwest  Level FlightAware Approximate
Thu 04:03:00 AM 19.1012 -89.7185 329° Northwest  Level FlightAware Approximate
Thu 04:04:00 AM 19.2012 -89.7833 329° Northwest  Level FlightAware Approximate
Thu 04:05:00 AM 19.3011 -89.8481 329° Northwest  Level FlightAware Approximate
Thu 04:06:00 AM 19.4011 -89.9131 328° Northwest  Level FlightAware Approximate
Thu 04:07:00 AM 19.5009 -89.9782 328° Northwest  Level FlightAware Approximate
Thu 04:08:00 AM 19.6007 -90.0436 328° Northwest  Level FlightAware Approximate
Thu 04:09:00 AM 19.7004 -90.1091 328° Northwest  Level FlightAware Approximate
Thu 04:10:00 AM 19.8001 -90.1746 328° Northwest  Level FlightAware Approximate
Thu 04:11:00 AM 19.8997 -90.2403 328° Northwest  Level FlightAware Approximate
Thu 04:12:00 AM 19.9993 -90.3060 328° Northwest  Level FlightAware Approximate
Thu 04:13:00 AM 20.0989 -90.3718 328° Northwest  Level FlightAware Approximate
Thu 04:14:00 AM 20.1985 -90.4377 328° Northwest  Level FlightAware Approximate
Thu 04:15:00 AM 20.2981 -90.5036 328° Northwest  Level FlightAware Approximate
Thu 04:16:00 AM 20.3976 -90.5697 328° Northwest  Level FlightAware Approximate
Thu 04:17:00 AM 20.4971 -90.6358 328° Northwest  Level FlightAware Approximate
Thu 04:18:00 AM 20.5966 -90.7021 328° Northwest  Level FlightAware Approximate
Thu 04:19:00 AM 20.6961 -90.7684 328° Northwest  Level FlightAware Approximate
Thu 04:20:00 AM 20.7955 -90.8348 328° Northwest  Level FlightAware Approximate
Thu 04:21:00 AM 20.8949 -90.9013 328° Northwest  Level FlightAware Approximate
Thu 04:22:00 AM 20.9943 -90.9679 328° Northwest  Level FlightAware Approximate
Thu 04:23:00 AM 21.0936 -91.0345 328° Northwest  Level FlightAware Approximate
Thu 04:24:00 AM 21.2020 -91.0810 341° North  Level FlightAware Approximate
Thu 04:25:00 AM 21.3126 -91.1225 337° Northwest  Level FlightAware Approximate
Thu 04:26:00 AM 21.4203 -91.1721 337° Northwest  Level FlightAware Approximate
Thu 04:27:00 AM 21.5290 -91.2214 340° North  Level FlightAware Approximate
Thu 04:28:00 AM 21.6402 -91.2641 340° North  Level FlightAware Approximate
Thu 04:29:00 AM 21.7510 -91.3077 338° Northwest  Level FlightAware Approximate
Thu 04:30:00 AM 21.8604 -91.3556 338° Northwest  Level FlightAware Approximate
Thu 04:31:00 AM 21.9697 -91.4035 338° Northwest  Level FlightAware Approximate
Thu 04:32:00 AM 22.0791 -91.4514 338° Northwest  Level FlightAware Approximate
Thu 04:33:00 AM 22.1884 -91.4995 338° Northwest  Level FlightAware Approximate
Thu 04:34:00 AM 22.2977 -91.5476 338° Northwest  Level FlightAware Approximate
Thu 04:35:00 AM 22.4070 -91.5958 338° Northwest  Level FlightAware Approximate
Thu 04:36:00 AM 22.5162 -91.6441 338° Northwest  Level FlightAware Approximate
Thu 04:37:00 AM 22.6255 -91.6925 338° Northwest  Level FlightAware Approximate
Thu 04:38:00 AM 22.7347 -91.7409 338° Northwest  Level FlightAware Approximate
Thu 04:39:00 AM 22.8440 -91.7894 338° Northwest  Level FlightAware Approximate
Thu 04:40:00 AM 22.9532 -91.8380 338° Northwest  Level FlightAware Approximate
Thu 04:41:00 AM 23.0624 -91.8866 338° Northwest  Level FlightAware Approximate
Thu 04:42:00 AM 23.1716 -91.9354 338° Northwest  Level FlightAware Approximate
Thu 04:43:00 AM 23.2807 -91.9842 338° Northwest  Level FlightAware Approximate
Thu 04:44:00 AM 23.3899 -92.0331 338° Northwest  Level FlightAware Approximate
Thu 04:45:00 AM 23.4990 -92.0821 338° Northwest  Level FlightAware Approximate
Thu 04:46:00 AM 23.6081 -92.1312 338° Northwest  Level FlightAware Approximate
Thu 04:47:00 AM 23.7173 -92.1802 338° Northwest  Level FlightAware Approximate
Thu 04:48:00 AM 23.8265 -92.2291 338° Northwest  Level FlightAware Approximate
Thu 04:49:00 AM 23.9357 -92.2782 338° Northwest  Level FlightAware Approximate
Thu 04:50:00 AM 24.0448 -92.3274 338° Northwest  Level FlightAware Approximate
Thu 04:51:00 AM 24.1540 -92.3766 338° Northwest  Level FlightAware Approximate
Thu 04:52:00 AM 24.2631 -92.4259 338° Northwest  Level FlightAware Approximate
Thu 04:53:00 AM 24.3720 -92.4753 338° Northwest  Level FlightAware Approximate
Thu 04:54:00 AM 24.4809 -92.5247 338° Northwest  Level FlightAware Approximate
Thu 04:55:00 AM 24.5862 -92.5825 333° Northwest  Level FlightAware Approximate
Thu 04:56:00 AM 24.6908 -92.6422 333° Northwest  Level FlightAware Approximate
Thu 04:57:00 AM 24.7954 -92.7020 333° Northwest  Level FlightAware Approximate
Thu 04:58:00 AM 24.8991 -92.7636 331° Northwest  Level FlightAware Approximate
Thu 04:59:00 AM 25.0018 -92.8271 331° Northwest  Level FlightAware Approximate
Thu 05:00:00 AM 25.1046 -92.8908 331° Northwest  Level FlightAware Approximate
Thu 05:01:00 AM 25.2075 -92.9542 333° Northwest  Level FlightAware Approximate
Thu 05:02:00 AM 25.3128 -93.0126 333° Northwest  Level FlightAware Approximate
Thu 05:03:00 AM 25.4166 -93.0742 331° Northwest  Level FlightAware Approximate
Thu 05:04:00 AM 25.5197 -93.1375 331° Northwest  Level FlightAware Approximate
Thu 05:05:00 AM 25.6227 -93.2008 331° Northwest  Level FlightAware Approximate
Thu 05:06:00 AM 25.7257 -93.2643 331° Northwest  Level FlightAware Approximate
Thu 05:06:35 AM 26.4500 -93.7164 331° Northwest 444 511 38,000  Level Houston Center
Thu 05:07:00 AM 25.8286 -93.3279 331° Northwest  Level FlightAware Approximate
Thu 05:07:35 AM 26.5603 -93.7800 333° Northwest 445 512 38,000  Level Houston Center
Thu 05:08:00 AM 25.9316 -93.3916 331° Northwest  Level FlightAware Approximate
Thu 05:08:35 AM 26.6811 -93.8133 346° North 451 519 38,000  Level Houston Center
Thu 05:09:00 AM 26.0358 -93.4563 331° Northwest  Level FlightAware Approximate
Thu 05:09:35 AM 26.7947 -93.8528 343° North 452 520 38,000  Level Houston Center
Thu 05:10:00 AM 26.1401 -93.5210 331° Northwest  Level FlightAware Approximate
Thu 05:10:36 AM 26.9139 -93.8964 342° North 451 519 38,000  Level Houston Center
Thu 05:11:00 AM 26.2442 -93.5859 331° Northwest  Level FlightAware Approximate
Thu 05:11:36 AM 27.0353 -93.9372 343° North 454 522 38,000  Level Houston Center
Thu 05:12:36 AM 27.1553 -93.9814 342° North 453 521 38,000  Level Houston Center
Thu 05:13:36 AM 27.2767 -94.0225 343° North 454 522 38,000  Level Houston Center
Thu 05:14:36 AM 27.3953 -94.0642 343° North 447 514 38,000  Level Houston Center
Thu 05:15:37 AM 27.5158 -94.1061 343° North 452 520 38,000  Level Houston Center
Thu 05:16:37 AM 27.6358 -94.1497 342° North 453 521 38,000  Level Houston Center
Thu 05:17:37 AM 27.7544 -94.1906 343° North 447 514 38,000  Level Houston Center
Thu 05:18:37 AM 27.8736 -94.2339 342° North 449 517 38,000  Level Houston Center
Thu 05:19:38 AM 27.9931 -94.2744 343° North 448 516 38,000  Level Houston Center
Thu 05:20:38 AM 28.1111 -94.3192 342° North 448 516 38,000  Level Houston Center
Thu 05:21:38 AM 28.2300 -94.3597 343° North 446 513 38,000 -550 Level Houston Center
Thu 05:22:38 AM 28.3472 -94.4014 343° North 442 509 36,900 -1,950 Descending Houston Center
Thu 05:23:38 AM 28.4622 -94.4450 342° North 437 503 34,100 -2,727 Descending Houston Center
Thu 05:24:39 AM 28.5808 -94.4853 343° North 443 510 31,400 -2,529 Descending Houston Center
Thu 05:25:39 AM 28.6967 -94.5275 342° North 439 505 29,000 -2,514 Descending Houston Center
Thu 05:26:24 AM 28.7931 -94.5650 341° North 420 483 27,000 -2,377 Descending Houston Center
Thu 05:27:25 AM 28.9064 -94.6056 343° North 400 460 24,800 -2,132 Descending Houston Center
Thu 05:28:25 AM 29.0089 -94.6428 342° North 387 445 22,700 -2,033 Descending Houston Center
Thu 05:29:26 AM 29.1092 -94.6803 342° North 374 430 20,700 -1,983 Descending Houston Center
Thu 05:30:20 AM 29.1981 -94.7097 344° North 364 419 18,900 -1,930 Descending Houston Center
Thu 05:31:21 AM 29.2919 -94.7433 343° North 353 406 17,000 -1,918 Descending Houston Center
Thu 05:32:22 AM 29.3833 -94.7775 342° North 345 397 15,000 -1,884 Descending Houston Center
Thu 05:33:22 AM 29.4728 -94.8119 341° North 339 390 13,200 -1,835 Descending Houston Center
Thu 05:34:23 AM 29.5600 -94.8442 342° North 329 379 11,300 -1,587 Descending Houston Center
Thu 05:35:23 AM 29.6447 -94.8744 343° North 318 366 10,000 -1,240 Descending Houston Center
Thu 05:36:24 AM 29.7256 -94.9053 342° North 281 323 8,800 -1,279 Descending Houston Center
Thu 05:37:25 AM 29.7994 -94.9319 343° North 279 321 7,400 -1,438 Descending Houston Center
Thu 05:38:25 AM 29.8733 -94.9589 342° North 278 320 5,900 -1,304 Descending Houston Center
Thu 05:39:20 AM 29.9408 -94.9844 342° North 277 319 4,900 -783 Descending Houston Center
Thu 05:40:20 AM 29.9781 -95.0447 305° West 228 262 4,400 -843 Descending Houston Center
Thu 05:41:21 AM 29.9764 -95.1150 268° West 207 238 3,200 -1,180 Descending Houston Center

Login

Don't have an account? Register now (free) for customized features, flight alerts, and more!